Time;durP1;ratioP1;P1;durP2;ratioP2;P2;SDS_P1;SDS_P2;PMS_P1;PMS_P2;Temp;Humidity;BMP_temperature;BMP_pressure;BME280_temperature;BME280_humidity;BME280_pressure;Samples;Min_cycle;Max_cycle;Signal;HPM_P1;HPM_P2
2022/09/12 00:01:27;;;;;;;;;6.60;6.60;;;;;15.37;94.45;99323.56;6308927;20;2733786;-52
2022/09/12 00:03:59;;;;;;;;;8.00;8.00;;;;;15.22;95.19;99315.94;6313898;20;2740873;-53
2022/09/12 00:06:34;;;;;;;;;7.80;7.60;;;;;15.27;94.83;99319.09;6305767;20;2732621;-55
2022/09/12 00:09:13;;;;;;;;;8.00;8.00;;;;;15.23;94.94;99315.81;6313711;20;2748205;-48
2022/09/12 00:11:45;;;;;;;;;6.50;6.50;;;;;15.26;95.26;99304.72;6285572;20;2736724;-51
2022/09/12 00:14:18;;;;;;;;;6.57;6.57;;;;;15.25;95.06;99313.00;6323718;20;3457666;-51
2022/09/12 00:16:46;;;;;;;;;8.00;8.00;;;;;15.26;95.06;99320.09;6313153;20;2746094;-53
2022/09/12 00:19:17;;;;;;;;;8.43;7.71;;;;;15.24;94.92;99322.06;6327329;20;3447103;-52
2022/09/12 00:21:49;;;;;;;;;8.00;8.00;;;;;15.18;94.94;99322.63;6358720;20;3451363;-56
2022/09/12 00:24:18;;;;;;;;;8.20;7.60;;;;;15.12;95.34;99322.16;6336624;20;2738867;-51
2022/09/12 00:26:49;;;;;;;;;7.86;7.86;;;;;15.15;95.68;99319.19;6354872;20;3461907;-53
2022/09/12 00:29:20;;;;;;;;;8.00;7.00;;;;;15.15;95.36;99324.59;6313177;20;2733721;-51
2022/09/12 00:31:48;;;;;;;;;7.00;7.00;;;;;15.07;95.27;99324.41;6285026;20;2744006;-51
2022/09/12 00:34:18;;;;;;;;;9.00;7.20;;;;;15.07;95.80;99308.19;6305291;20;2733609;-52
2022/09/12 00:36:47;;;;;;;;;9.60;9.00;;;;;15.08;94.92;99307.19;6334499;20;2765044;-54
2022/09/12 00:39:16;;;;;;;;;6.00;5.50;;;;;15.10;95.18;99315.16;6286436;20;2730456;-53
2022/09/12 00:41:44;;;;;;;;;8.50;8.50;;;;;15.02;95.06;99318.53;6282575;20;2745064;-52
2022/09/12 00:44:15;;;;;;;;;7.00;7.00;;;;;15.11;94.90;99322.28;6322767;20;2469071;-48
2022/09/12 00:46:56;;;;;;;;;9.00;7.50;;;;;15.04;94.91;99321.97;6311983;20;2739994;-52
2022/09/12 00:49:48;;;;;;;;;8.20;8.20;;;;;15.06;94.30;99311.88;6301819;20;2746112;-51
2022/09/12 00:52:38;;;;;;;;;8.80;8.80;;;;;15.10;93.88;99321.44;6334157;20;2750289;-50
2022/09/12 00:55:26;;;;;;;;;10.00;10.00;;;;;14.93;94.44;99324.75;6307787;20;2784875;-54
2022/09/12 00:58:14;;;;;;;;;9.40;8.60;;;;;15.02;94.28;99320.38;6305282;20;2771095;-54
2022/09/12 01:00:42;;;;;;;;;8.00;8.00;;;;;15.05;94.14;99329.06;6277944;20;2755620;-51
2022/09/12 01:03:18;;;;;;;;;9.00;7.00;;;;;15.05;93.83;99328.22;6281822;20;2742045;-52
2022/09/12 01:06:25;;;;;;;;;6.00;6.00;;;;;15.02;93.89;99328.50;6279608;20;2745141;-56
2022/09/12 01:08:56;;;;;;;;;7.00;7.00;;;;;15.06;93.65;99333.50;6305844;20;2737759;-53
2022/09/12 01:11:24;;;;;;;;;8.00;8.00;;;;;15.03;94.01;99325.66;6310758;20;2740964;-53
2022/09/12 01:13:54;;;;;;;;;8.20;8.20;;;;;15.05;93.24;99329.06;6306656;20;2752349;-50
2022/09/12 01:16:26;;;;;;;;;8.00;7.00;;;;;15.09;93.44;99327.00;6357341;20;3467977;-50
2022/09/12 01:19:45;;;;;;;;;7.50;7.00;;;;;15.01;94.01;99318.66;6318630;20;2736695;-53
2022/09/12 01:22:55;;;;;;;;;10.50;9.00;;;;;14.99;93.71;99321.50;6281697;20;2765899;-52
2022/09/12 01:26:02;;;;;;;;;8.00;8.00;;;;;15.00;93.61;99317.81;6287620;20;2744068;-51
2022/09/12 01:28:54;;;;;;;;;7.00;7.00;;;;;14.97;93.60;99315.38;6284847;20;2735728;-53
2022/09/12 01:31:51;;;;;;;;;8.00;8.00;;;;;14.85;93.33;99321.81;6304982;20;2748154;-52
2022/09/12 01:34:28;;;;;;;;;8.00;8.00;;;;;14.98;93.01;99322.50;6315639;20;2752315;-52
2022/09/12 01:37:37;;;;;;;;;10.00;8.00;;;;;15.07;92.27;99319.00;6282763;20;2755688;-52
2022/09/12 01:40:39;;;;;;;;;7.00;7.00;;;;;15.02;92.84;99314.97;6324301;20;3441962;-53
2022/09/12 01:43:30;;;;;;;;;8.00;7.00;;;;;15.03;92.64;99314.81;6315741;20;2734731;-51
2022/09/12 01:46:23;;;;;;;;;7.50;7.50;;;;;14.93;93.15;99316.63;6287695;20;2739886;-53
2022/09/12 01:49:07;;;;;;;;;7.00;7.00;;;;;14.91;92.87;99318.59;6289079;20;2741963;-52
2022/09/12 01:51:53;;;;;;;;;8.14;7.29;;;;;14.90;92.82;99316.88;6323509;20;3461807;-49
2022/09/12 01:54:54;;;;;;;;;7.50;6.00;;;;;14.84;92.77;99317.41;6313523;20;2734765;-51
2022/09/12 01:57:43;;;;;;;;;6.00;6.00;;;;;14.73;93.47;99323.72;6284576;20;2744101;-50
2022/09/12 02:00:13;;;;;;;;;8.00;7.00;;;;;14.84;92.86;99317.41;6280894;20;2741971;-53
2022/09/12 02:03:09;;;;;;;;;7.50;6.00;;;;;14.75;92.79;99318.19;6279584;20;2748247;-54
2022/09/12 02:05:49;;;;;;;;;7.00;7.00;;;;;14.76;92.73;99317.19;6284534;20;2735714;-54
2022/09/12 02:08:34;;;;;;;;;8.00;8.00;;;;;14.67;93.21;99308.91;6282699;20;2756499;-53
2022/09/12 02:11:12;;;;;;;;;7.57;7.00;;;;;14.65;93.08;99316.25;6322701;20;3441906;-53
2022/09/12 02:13:59;;;;;;;;;7.60;7.60;;;;;14.83;92.71;99313.00;6341638;20;2744168;-52
2022/09/12 02:16:58;;;;;;;;;8.50;7.00;;;;;14.66;92.76;99307.16;6314950;20;2741922;-53
2022/09/12 02:20:18;;;;;;;;;8.00;7.00;;;;;14.64;93.25;99317.25;6285550;20;2746083;-51
2022/09/12 02:23:15;;;;;;;;;8.50;7.50;;;;;14.55;92.98;99309.91;6286624;20;2748160;-55
2022/09/12 02:25:50;;;;;;;;;7.50;7.50;;;;;14.52;93.63;99314.69;6280097;20;2748165;-51
2022/09/12 02:28:34;;;;;;;;;7.00;7.00;;;;;14.50;93.79;99321.06;6286513;20;2738801;-53
2022/09/12 02:31:33;;;;;;;;;3.00;3.00;;;;;14.42;94.15;99306.50;6282878;20;2739875;-53
2022/09/12 02:34:43;;;;;;;;;6.00;6.00;;;;;14.26;95.19;99315.88;6284172;20;2748233;-56
2022/09/12 02:37:36;;;;;;;;;8.00;6.50;;;;;14.39;94.84;99320.25;6284232;20;2742012;-56
2022/09/12 02:40:06;;;;;;;;;8.40;8.40;;;;;14.39;94.90;99314.88;6305780;20;2747122;-55
2022/09/12 02:42:35;;;;;;;;;8.00;8.00;;;;;14.32;95.25;99309.09;6316442;20;2753547;-52
2022/09/12 02:45:04;;;;;;;;;8.00;8.00;;;;;14.26;95.37;99315.03;6288556;20;2730542;-54
2022/09/12 02:48:08;;;;;;;;;9.00;7.00;;;;;14.25;95.25;99319.56;6286715;20;2743123;-49
2022/09/12 02:50:37;;;;;;;;;7.00;7.00;;;;;14.25;95.23;99318.72;6282682;20;2741030;-52
2022/09/12 02:53:07;;;;;;;;;5.50;5.50;;;;;14.22;94.94;99319.81;6283609;20;2740909;-53
2022/09/12 02:55:39;;;;;;;;;7.00;7.00;;;;;14.33;94.76;99327.03;6283861;20;2740025;-53
2022/09/12 02:58:18;;;;;;;;;7.00;7.00;;;;;14.26;94.89;99320.41;6281622;20;2746073;-54
2022/09/12 03:01:21;;;;;;;;;8.00;8.00;;;;;14.16;95.48;99331.09;6307871;20;2752416;-53
2022/09/12 03:04:09;;;;;;;;;7.00;7.00;;;;;14.08;96.04;99330.03;6317678;20;2738792;-55
2022/09/12 03:06:58;;;;;;;;;8.50;6.50;;;;;14.20;95.56;99329.03;6279685;20;2739853;-54
2022/09/12 03:10:05;;;;;;;;;6.00;6.00;;;;;14.22;94.96;99333.31;6286920;20;2736708;-56
2022/09/12 03:13:05;;;;;;;;;6.50;6.50;;;;;14.11;95.49;99348.69;6284872;20;2746235;-52
2022/09/12 03:16:25;;;;;;;;;8.00;6.50;;;;;14.16;95.21;99341.06;6284173;20;2732626;-52
2022/09/12 03:19:32;;;;;;;;;9.50;9.50;;;;;14.10;96.35;99346.97;6279419;20;2770181;-48
2022/09/12 03:22:27;;;;;;;;;6.57;6.57;;;;;14.03;96.33;99346.59;6325901;20;3455502;-53
2022/09/12 03:25:15;;;;;;;;;7.50;6.00;;;;;14.07;96.38;99347.22;6314349;20;2743057;-53
2022/09/12 03:28:15;;;;;;;;;9.00;8.00;;;;;14.10;96.11;99346.97;6279500;20;2737824;-53
2022/09/12 03:30:50;;;;;;;;;7.14;7.00;;;;;14.10;95.85;99346.97;6325660;20;3461717;-51
2022/09/12 03:33:21;;;;;;;;;7.00;7.00;;;;;14.12;96.07;99351.25;6313653;20;2737753;-52
2022/09/12 03:35:52;;;;;;;;;8.00;8.00;;;;;14.05;96.45;99350.88;6304304;20;2750279;-51
2022/09/12 03:38:20;;;;;;;;;8.00;6.00;;;;;14.13;96.19;99352.97;6312109;20;2737787;-55
2022/09/12 03:40:48;;;;;;;;;10.00;9.00;;;;;14.08;96.43;99348.94;6281447;20;2765882;-55
2022/09/12 03:43:21;;;;;;;;;8.50;8.50;;;;;14.07;96.75;99348.06;6285191;20;2756666;-54
2022/09/12 03:45:54;;;;;;;;;8.00;8.00;;;;;14.02;96.52;99356.53;6278499;20;2754434;-53
2022/09/12 03:48:22;;;;;;;;;8.00;8.00;;;;;14.09;96.18;99359.63;6286063;20;2744186;-51
2022/09/12 03:50:49;;;;;;;;;10.00;8.00;;;;;14.01;96.74;99357.53;6280780;20;2752605;-54
2022/09/12 03:53:21;;;;;;;;;9.00;7.86;;;;;14.08;96.69;99355.19;6322878;20;3475301;-54
2022/09/12 03:55:50;;;;;;;;;7.80;7.40;;;;;14.03;96.30;99352.88;6336300;20;2739869;-52
2022/09/12 03:58:18;;;;;;;;;9.00;8.50;;;;;14.01;96.79;99354.84;6315550;20;2746490;-52
2022/09/12 04:00:46;;;;;;;;;9.00;9.00;;;;;14.12;96.37;99361.22;6284374;20;2741915;-52
2022/09/12 04:03:18;;;;;;;;;9.00;8.60;;;;;14.19;96.02;99362.41;6303307;20;2736852;-56
2022/09/12 04:05:46;;;;;;;;;9.00;9.00;;;;;14.03;96.64;99362.78;6309853;20;2756678;-53
2022/09/12 04:08:14;;;;;;;;;8.00;8.00;;;;;14.15;96.56;99358.25;6285063;20;2748198;-52
2022/09/12 04:10:42;;;;;;;;;7.50;7.50;;;;;14.03;96.99;99357.41;6284307;20;2746163;-54
2022/09/12 04:13:09;;;;;;;;;8.00;8.00;;;;;14.17;96.64;99364.41;6281754;20;2746067;-55
2022/09/12 04:15:40;;;;;;;;;9.00;9.00;;;;;14.03;96.68;99371.78;6286012;20;2739849;-53
2022/09/12 04:18:08;;;;;;;;;9.00;8.00;;;;;13.99;97.54;99364.91;6281866;20;2735694;-51
2022/09/12 04:20:37;;;;;;;;;9.60;9.60;;;;;14.02;97.50;99363.78;6308479;20;2771101;-56
2022/09/12 04:23:05;;;;;;;;;8.00;7.00;;;;;14.07;97.59;99360.72;6283826;20;2744050;-54
2022/09/12 04:25:32;;;;;;;;;8.00;8.00;;;;;14.16;96.91;99366.22;6283949;20;2732729;-55
2022/09/12 04:28:01;;;;;;;;;11.33;9.33;;;;;14.13;97.10;99369.16;6278987;20;2773282;-53
2022/09/12 04:30:29;;;;;;;;;11.00;8.00;;;;;14.10;97.45;99369.41;6311482;20;2769088;-53
2022/09/12 04:32:56;;;;;;;;;10.50;9.50;;;;;14.13;97.58;99362.91;6283937;20;2773165;-50
2022/09/12 04:35:26;;;;;;;;;9.20;8.80;;;;;14.05;98.05;99367.09;6305310;20;2752380;-54
2022/09/12 04:37:56;;;;;;;;;10.40;8.00;;;;;14.12;97.67;99367.47;6307395;20;2771076;-54
2022/09/12 04:40:25;;;;;;;;;12.80;11.60;;;;;14.08;97.74;99359.72;6302986;20;2794120;-49
2022/09/12 04:42:54;;;;;;;;;10.50;10.00;;;;;14.12;97.88;99362.06;6281555;20;2794039;-52
2022/09/12 04:45:22;;;;;;;;;10.50;10.50;;;;;14.12;97.61;99367.47;6279761;20;2791951;-55
2022/09/12 04:47:50;;;;;;;;;10.50;10.50;;;;;14.26;97.31;99361.78;6286966;20;2783595;-53
2022/09/12 04:50:20;;;;;;;;;13.20;12.00;;;;;14.22;96.80;99371.13;6309910;20;2788810;-53
2022/09/12 04:52:54;;;;;;;;;10.40;10.40;;;;;14.18;97.72;99369.66;6305589;20;2798294;-54
2022/09/12 04:55:24;;;;;;;;;12.00;11.00;;;;;14.30;97.40;99380.44;6281249;20;2793992;-53
2022/09/12 04:57:52;;;;;;;;;12.00;10.00;;;;;14.30;97.17;99372.31;6322410;20;2782728;-55
2022/09/12 05:00:21;;;;;;;;;11.40;11.00;;;;;14.33;97.00;99366.69;6313082;20;2791962;-54
2022/09/12 05:02:51;;;;;;;;;12.20;10.60;;;;;14.28;96.74;99377.88;6309802;20;2789881;-54
2022/09/12 05:05:18;;;;;;;;;10.50;9.50;;;;;14.39;97.03;99372.44;6288139;20;2778369;-55
2022/09/12 05:07:48;;;;;;;;;10.40;9.40;;;;;14.54;95.99;99378.47;6309867;20;2769088;-55
2022/09/12 05:10:17;;;;;;;;;10.00;9.00;;;;;14.62;95.50;99369.72;6284992;20;2775376;-55
2022/09/12 05:12:44;;;;;;;;;7.00;7.00;;;;;14.62;95.01;99370.56;6289394;20;2742951;-53
2022/09/12 05:15:12;;;;;;;;;10.00;10.00;;;;;14.67;95.19;99375.59;6288719;20;2792049;-55
2022/09/12 05:17:42;;;;;;;;;9.00;9.00;;;;;14.76;94.78;99372.09;6310375;20;2731532;-52
2022/09/12 05:20:11;;;;;;;;;11.00;9.00;;;;;14.75;94.29;99374.97;6317534;20;2770210;-54
2022/09/12 05:22:41;;;;;;;;;8.60;8.60;;;;;14.92;93.61;99371.66;6309644;20;2748220;-53
2022/09/12 05:25:12;;;;;;;;;8.57;8.57;;;;;15.06;93.03;99379.47;6329895;20;3459633;-53
2022/09/12 05:27:40;;;;;;;;;8.00;8.00;;;;;15.08;92.44;99385.59;6318099;20;2754579;-53
2022/09/12 05:30:11;;;;;;;;;8.57;8.57;;;;;15.12;92.00;99389.75;6332248;20;3467998;-51
2022/09/12 05:32:39;;;;;;;;;9.00;8.50;;;;;15.14;92.03;99382.38;6316920;20;2765989;-49
2022/09/12 05:35:10;;;;;;;;;9.20;8.80;;;;;15.23;91.33;99386.13;6310869;20;2764834;-51
2022/09/12 05:37:39;;;;;;;;;9.60;8.80;;;;;15.35;90.43;99381.53;6308458;20;2750330;-55
2022/09/12 05:40:08;;;;;;;;;7.50;7.50;;;;;15.42;89.73;99379.16;6319851;20;2732563;-52
2022/09/12 05:42:36;;;;;;;;;8.00;8.00;;;;;15.54;88.77;99387.06;6284697;20;2752331;-51
2022/09/12 05:45:07;;;;;;;;;7.80;7.00;;;;;15.52;89.17;99375.50;6341976;20;2746100;-52
2022/09/12 05:47:36;;;;;;;;;8.00;8.00;;;;;15.74;88.07;99390.75;6341149;20;2748643;-52
2022/09/12 05:50:09;;;;;;;;;8.00;8.00;;;;;15.75;88.08;99387.06;6318433;20;2748287;-51
2022/09/12 05:52:39;;;;;;;;;9.00;9.00;;;;;17.60;81.18;99384.59;6309242;20;1924370;-50
2022/09/12 05:55:08;;;;;;;;;9.20;8.40;;;;;16.95;81.67;99386.25;6336545;20;2757646;-51
2022/09/12 05:57:45;;;;;;;;;7.71;7.00;;;;;16.84;82.16;99390.81;6327520;20;3461691;-50
2022/09/12 06:00:15;;;;;;;;;9.40;9.40;;;;;17.45;79.60;99391.50;6339923;20;2780581;-52
2022/09/12 06:02:43;;;;;;;;;7.50;7.00;;;;;16.94;81.68;99403.53;6281030;20;2746364;-52
2022/09/12 06:05:11;;;;;;;;;6.00;6.00;;;;;16.94;81.88;99400.81;6289265;20;2745086;-52
2022/09/12 06:07:40;;;;;;;;;8.00;8.00;;;;;17.08;80.84;99408.53;6302069;20;2746093;-53
2022/09/12 06:10:08;;;;;;;;;8.00;7.00;;;;;17.93;78.05;99394.13;6288336;20;2740892;-54
2022/09/12 06:12:38;;;;;;;;;6.20;5.00;;;;;20.08;69.90;99404.19;6310208;20;2750236;-57
2022/09/12 06:15:08;;;;;;;;;3.60;3.60;;;;;19.31;69.45;99406.72;6340495;20;2754402;-55
2022/09/12 06:17:38;;;;;;;;;6.60;5.00;;;;;19.92;68.62;99413.97;6339959;20;2748200;-61
2022/09/12 06:20:08;;;;;;;;;6.00;6.00;;;;;22.54;60.04;99417.00;6341370;20;2738880;-62
2022/09/12 06:22:35;;;;;;;;;7.00;7.00;;;;;24.44;53.83;99430.88;6319105;20;2729425;-62
2022/09/12 06:25:04;;;;;;;;;6.00;6.00;;;;;23.15;57.13;99424.53;6291566;20;2744059;-62
2022/09/12 06:27:34;;;;;;;;;5.40;5.40;;;;;23.69;54.73;99429.06;6341529;20;2731666;-62
2022/09/12 06:30:04;;;;;;;;;5.20;5.20;;;;;25.39;49.72;99441.75;6339529;20;2740052;-63
2022/09/12 06:32:33;;;;;;;;;5.60;5.60;;;;;20.88;61.11;99428.38;6337646;20;2735760;-63
2022/09/12 06:35:04;;;;;;;;;5.40;5.40;;;;;19.87;65.57;99427.22;6341974;20;2743040;-63
2022/09/12 06:37:33;;;;;;;;;6.80;5.80;;;;;18.62;69.73;99417.22;6340133;20;2731601;-62
2022/09/12 06:40:03;;;;;;;;;6.20;5.60;;;;;18.68;71.46;99418.47;6342523;20;2729468;-62
2022/09/12 06:42:31;;;;;;;;;5.00;5.00;;;;;18.36;70.99;99417.09;6313905;20;2750249;-61
2022/09/12 06:44:59;;;;;;;;;7.00;6.00;;;;;18.26;70.66;99427.16;6286476;20;2735741;-61
2022/09/12 06:47:29;;;;;;;;;5.60;5.60;;;;;18.52;70.32;99426.44;6305698;20;2745035;-61
2022/09/12 06:49:58;;;;;;;;;5.40;5.20;;;;;18.53;69.13;99429.00;6305086;20;2742072;-61
2022/09/12 06:52:28;;;;;;;;;4.60;4.60;;;;;18.66;69.15;99428.66;6336527;20;2742958;-62
2022/09/12 06:54:57;;;;;;;;;4.60;4.60;;;;;18.72;68.37;99428.06;6336264;20;2734742;-62
2022/09/12 06:57:29;;;;;;;;;6.40;6.20;;;;;18.46;69.05;99433.34;6339744;20;2746078;-62
2022/09/12 06:59:58;;;;;;;;;7.80;6.00;;;;;18.65;68.27;99427.78;6339890;20;2738812;-62
2022/09/12 07:02:28;;;;;;;;;4.80;4.40;;;;;18.98;67.94;99439.03;6339960;20;2750257;-61
2022/09/12 07:04:55;;;;;;;;;5.00;5.00;;;;;18.98;67.03;99438.19;6310352;20;2741932;-61
2022/09/12 07:07:24;;;;;;;;;4.00;4.00;;;;;19.16;66.67;99430.03;6281970;20;2739982;-61
2022/09/12 07:09:56;;;;;;;;;4.00;4.00;;;;;19.15;66.20;99439.22;6338377;20;2748272;-62
2022/09/12 07:12:28;;;;;;;;;5.00;5.00;;;;;19.22;65.40;99434.84;6338018;20;2748256;-61
2022/09/12 07:14:58;;;;;;;;;6.80;5.00;;;;;19.20;64.52;99431.47;6337363;20;2736738;-60
2022/09/12 07:17:27;;;;;;;;;5.60;5.60;;;;;22.42;56.02;99437.56;6338640;20;2741935;-60
2022/09/12 07:19:56;;;;;;;;;6.00;4.33;;;;;19.77;60.49;99439.25;6313495;20;2746094;-61
2022/09/12 07:22:25;;;;;;;;;5.00;5.00;;;;;19.50;64.16;99441.91;6339922;20;2747359;-60
2022/09/12 07:24:54;;;;;;;;;3.00;3.00;;;;;19.28;63.31;99447.88;6316791;20;2742319;-61
2022/09/12 07:27:23;;;;;;;;;3.67;3.67;;;;;19.45;63.36;99444.25;6316289;20;2745085;-60
2022/09/12 07:29:52;;;;;;;;;4.80;4.00;;;;;19.68;63.20;99441.06;6334778;20;2749326;-60
2022/09/12 07:32:22;;;;;;;;;6.00;6.00;;;;;19.62;62.66;99447.97;6303250;20;2738831;-61
2022/09/12 07:34:52;;;;;;;;;6.00;6.00;;;;;19.91;61.33;99444.13;6339889;20;2739863;-61
2022/09/12 07:37:22;;;;;;;;;6.00;5.20;;;;;20.15;61.42;99449.72;6335991;20;2738819;-59
2022/09/12 07:39:52;;;;;;;;;4.00;4.00;;;;;20.15;60.18;99457.06;6339220;20;2738821;-60
2022/09/12 07:42:20;;;;;;;;;4.33;4.33;;;;;20.10;61.34;99464.84;6282945;20;2741931;-62
2022/09/12 07:44:51;;;;;;;;;5.00;5.00;;;;;20.57;59.97;99454.38;6338983;20;2748163;-65
2022/09/12 07:47:20;;;;;;;;;5.00;5.00;;;;;20.32;58.53;99457.97;6285425;20;2743984;-65
2022/09/12 07:49:49;;;;;;;;;5.00;5.00;;;;;19.96;58.83;99460.88;6337619;20;2748254;-64
2022/09/12 07:52:23;;;;;;;;;4.57;4.57;;;;;20.26;58.48;99464.94;6323691;20;3465973;-67
2022/09/12 07:54:52;;;;;;;;;4.40;4.40;;;;;20.84;57.51;99468.81;6339580;20;2747124;-66
2022/09/12 07:57:22;;;;;;;;;5.00;5.00;;;;;20.40;56.70;99474.38;6337315;20;2748174;-66
2022/09/12 07:59:51;;;;;;;;;4.00;4.00;;;;;20.45;57.10;99465.72;6337697;20;2745069;-66
2022/09/12 08:02:21;;;;;;;;;3.00;3.00;;;;;20.62;56.40;99473.00;6306148;20;2739840;-65
2022/09/12 08:04:50;;;;;;;;;5.67;5.67;;;;;20.78;56.57;99467.59;6316230;20;2748210;-66
2022/09/12 08:07:19;;;;;;;;;4.67;4.67;;;;;20.42;57.29;99461.44;6315158;20;2748179;-61
2022/09/12 08:09:48;;;;;;;;;3.60;3.60;;;;;21.20;56.15;99465.84;6338601;20;2736863;-62
2022/09/12 08:12:19;;;;;;;;;4.00;4.00;;;;;20.58;55.29;99463.41;6334946;20;2739264;-62
2022/09/12 08:14:48;;;;;;;;;6.00;4.80;;;;;21.34;55.70;99472.50;6334871;20;2748195;-62
2022/09/12 08:17:18;;;;;;;;;5.40;4.40;;;;;21.37;55.15;99477.63;6337346;20;2749240;-61
2022/09/12 08:19:48;;;;;;;;;3.40;3.40;;;;;21.07;54.97;99474.50;6307414;20;2751297;-60
2022/09/12 08:22:20;;;;;;;;;4.00;4.00;;;;;20.80;56.20;99468.28;6337374;20;2738962;-63
2022/09/12 08:24:50;;;;;;;;;4.00;4.00;;;;;20.99;55.58;99466.31;6338592;20;2740897;-66
2022/09/12 08:27:18;;;;;;;;;5.00;5.00;;;;;21.61;54.01;99472.19;6316149;20;2747132;-64
2022/09/12 08:29:48;;;;;;;;;5.00;5.00;;;;;21.19;55.41;99464.09;6336414;20;2745045;-66
2022/09/12 08:32:16;;;;;;;;;1.00;1.00;;;;;21.04;54.11;99469.38;6316997;20;2735701;-64
2022/09/12 08:34:45;;;;;;;;;4.40;4.40;;;;;21.12;53.51;99458.47;6334139;20;2756613;-66
2022/09/12 08:37:15;;;;;;;;;5.20;5.00;;;;;20.95;54.57;99467.63;6301265;20;2743009;-66
2022/09/12 08:39:44;;;;;;;;;4.60;4.60;;;;;21.42;53.35;99458.88;6334486;20;2751358;-65
2022/09/12 08:42:47;;;;;;;;;6.33;5.00;;;;;21.82;53.22;99454.41;6283000;20;2749344;-65
2022/09/12 08:45:28;;;;;;;;;4.00;4.00;;;;;21.72;51.81;99459.22;6337207;20;2754454;-66
2022/09/12 08:48:00;;;;;;;;;3.60;3.60;;;;;21.67;51.05;99455.13;6302245;20;2746106;-66
2022/09/12 08:50:31;;;;;;;;;3.00;3.00;;;;;21.27;51.87;99447.72;6315149;20;2727330;-65
2022/09/12 08:53:23;;;;;;;;;5.00;3.20;;;;;21.35;51.89;99457.81;6335669;20;2750266;-67
2022/09/12 08:55:58;;;;;;;;;4.40;3.40;;;;;21.69;50.80;99442.13;6301755;20;2739855;-63
2022/09/12 08:58:39;;;;;;;;;3.00;3.00;;;;;21.89;49.38;99447.25;6333877;20;2754443;-65
2022/09/12 09:01:40;;;;;;;;;4.20;4.20;;;;;21.84;49.63;99435.97;6338288;20;2752326;-66
2022/09/12 09:05:00;;;;;;;;;3.00;3.00;;;;;21.38;50.37;99435.66;6281382;20;2739930;-66
2022/09/12 09:08:22;;;;;;;;;8.40;5.00;;;;;21.85;50.59;99441.28;6333587;20;2741923;-66
2022/09/12 09:11:31;;;;;;;;;7.80;7.60;;;;;22.55;50.03;99426.91;6337161;20;2745072;-66
2022/09/12 09:14:47;;;;;;;;;13.67;9.67;;;;;22.08;50.67;99432.34;6279804;20;2794005;-66
2022/09/12 09:17:56;;;;;;;;;5.20;5.20;;;;;22.35;50.62;99439.28;6335682;20;2749208;-66
2022/09/12 09:20:35;;;;;;;;;4.40;4.40;;;;;22.46;49.68;99441.66;6335164;20;2749245;-65
2022/09/12 09:23:26;;;;;;;;;5.00;5.00;;;;;23.07;48.86;99443.78;6304025;20;2728428;-67
2022/09/12 09:26:25;;;;;;;;;4.80;4.80;;;;;22.79;50.11;99436.03;6335937;20;2750281;-66
2022/09/12 09:29:04;;;;;;;;;4.40;4.40;;;;;22.39;48.96;99428.88;6306541;20;2746116;-66
2022/09/12 09:31:38;;;;;;;;;4.40;4.40;;;;;22.97;48.95;99439.38;6302955;20;2750339;-66
2022/09/12 09:34:22;;;;;;;;;2.80;2.00;;;;;22.54;48.54;99443.50;6300343;20;2724316;-65
2022/09/12 09:37:18;;;;;;;;;3.60;3.60;;;;;22.88;47.23;99450.50;6339704;20;2756566;-65
2022/09/12 09:40:16;;;;;;;;;5.80;4.00;;;;;23.04;48.21;99433.16;6310249;20;2751305;-66
2022/09/12 09:43:21;;;;;;;;;6.80;5.00;;;;;22.88;48.85;99440.44;6308455;20;2740010;-65
2022/09/12 09:45:52;;;;;;;;;4.00;4.00;;;;;21.76;52.54;99438.72;6338672;20;2747181;-65
2022/09/12 09:48:40;;;;;;;;;2.40;2.40;;;;;22.38;48.67;99438.09;6313457;20;2750254;-63
2022/09/12 09:51:09;;;;;;;;;2.67;2.67;;;;;22.33;46.49;99441.38;6289278;20;2741933;-64
2022/09/12 09:54:43;;;;;;;;;4.00;2.00;;;;;21.97;47.21;99435.44;6318335;20;2746098;-63
2022/09/12 09:57:34;;;;;;;;;2.20;1.20;;;;;21.33;48.84;99446.19;6342129;20;2743006;-66
2022/09/12 10:00:37;;;;;;;;;3.00;3.00;;;;;21.85;48.94;99435.81;6323572;20;2731603;-65
2022/09/12 10:03:09;;;;;;;;;3.33;3.33;;;;;22.05;49.72;99436.28;6319471;20;2746131;-64
2022/09/12 10:06:31;;;;;;;;;4.60;4.60;;;;;21.31;54.19;99429.16;6345480;20;2748220;-64
2022/09/12 10:09:22;;;;;;;;;6.00;5.00;;;;;21.13;55.61;99437.47;6339302;20;2749206;-64
2022/09/12 10:11:54;;;;;;;;;5.40;5.00;;;;;21.70;51.82;99438.38;6314037;20;2748192;-66
2022/09/12 10:14:41;;;;;;;;;3.00;3.00;;;;;23.14;49.50;99439.25;6308187;20;2740914;-67
2022/09/12 10:17:41;;;;;;;;;3.20;3.20;;;;;22.45;49.51;99433.63;6311910;20;2756952;-65
2022/09/12 10:20:38;;;;;;;;;4.00;3.80;;;;;21.80;51.72;99437.34;6313980;20;2756547;-64
2022/09/12 10:23:31;;;;;;;;;5.40;4.00;;;;;22.39;50.69;99431.59;6310483;20;2753821;-65
2022/09/12 10:26:09;;;;;;;;;5.80;4.60;;;;;22.92;48.83;99440.91;6309764;20;2750365;-65
2022/09/12 10:28:51;;;;;;;;;4.00;4.00;;;;;23.23;49.32;99438.19;6308340;20;2746205;-65
2022/09/12 10:31:45;;;;;;;;;3.80;3.80;;;;;23.18;50.53;99437.88;6309129;20;2749187;-64
2022/09/12 10:34:39;;;;;;;;;0.00;0.00;;;;;22.11;51.04;99440.19;6290386;20;2726290;-65
2022/09/12 10:37:24;;;;;;;;;5.00;3.40;;;;;21.93;50.67;99440.38;6343352;20;2755484;-65
2022/09/12 10:39:58;;;;;;;;;3.00;3.00;;;;;21.74;50.91;99430.69;6312320;20;2750331;-65
2022/09/12 10:42:51;;;;;;;;;3.20;3.20;;;;;21.48;51.35;99425.41;6314351;20;2756569;-65
2022/09/12 10:45:29;;;;;;;;;2.67;2.67;;;;;22.10;52.00;99433.03;6289484;20;2746147;-65
2022/09/12 10:48:21;;;;;;;;;4.00;4.00;;;;;22.91;51.03;99437.34;6343760;20;2748269;-65
2022/09/12 10:50:51;;;;;;;;;5.00;3.00;;;;;23.26;49.19;99437.81;6310092;20;2744029;-66
2022/09/12 10:53:31;;;;;;;;;3.00;3.00;;;;;23.61;48.01;99435.47;6342841;20;2740954;-66
2022/09/12 10:56:11;;;;;;;;;4.40;4.40;;;;;23.40;49.09;99437.00;6339580;20;2738778;-65
2022/09/12 10:59:21;;;;;;;;;3.60;3.60;;;;;23.45;48.39;99426.34;6340946;20;2745142;-66
2022/09/12 11:02:27;;;;;;;;;4.00;4.00;;;;;22.98;49.95;99427.38;6312728;20;2744008;-66
2022/09/12 11:05:20;;;;;;;;;4.20;3.00;;;;;22.58;50.25;99425.69;6341397;20;2752514;-66
2022/09/12 11:08:26;;;;;;;;;4.20;3.00;;;;;22.39;50.55;99424.25;6307213;20;2755466;-67
2022/09/12 11:11:46;;;;;;;;;3.00;3.00;;;;;21.95;51.95;99438.34;6313393;20;2753414;-65
2022/09/12 11:15:13;;;;;;;;;4.00;3.67;;;;;21.61;52.37;99433.94;6284185;20;2755465;-65
2022/09/12 11:18:13;;;;;;;;;3.00;3.00;;;;;21.54;52.16;99432.94;6343874;20;2737779;-65
2022/09/12 11:21:29;;;;;;;;;4.00;4.00;;;;;21.63;52.68;99423.69;6343579;20;2744085;-66
2022/09/12 11:24:38;;;;;;;;;4.83;4.83;;;;;21.32;53.93;99430.84;6365129;20;1794092;-66
2022/09/12 11:27:40;;;;;;;;;4.20;4.20;;;;;20.97;54.88;99438.31;6339663;20;2748199;-65
2022/09/12 11:30:15;;;;;;;;;3.67;3.67;;;;;20.90;55.24;99449.03;6287707;20;2753468;-65
2022/09/12 11:33:35;;;;;;;;;4.20;4.20;;;;;21.10;55.35;99443.28;6340993;20;2748178;-65
2022/09/12 11:36:47;;;;;;;;;3.80;3.80;;;;;20.92;56.97;99433.34;6308111;20;2744412;-65
2022/09/12 11:39:25;;;;;;;;;4.00;4.00;;;;;21.09;56.93;99436.97;6342002;20;2750364;-66
2022/09/12 11:42:01;;;;;;;;;5.00;5.00;;;;;21.43;56.05;99438.72;6318659;20;2748263;-66
2022/09/12 11:44:42;;;;;;;;;8.00;5.00;;;;;21.64;55.60;99441.81;6317650;20;2733586;-66
2022/09/12 11:47:13;;;;;;;;;3.60;3.20;;;;;21.76;55.92;99434.09;6338959;20;2742970;-65
2022/09/12 11:49:49;;;;;;;;;4.00;4.00;;;;;21.60;55.44;99442.31;6344270;20;2746101;-65
2022/09/12 11:52:33;;;;;;;;;4.00;4.00;;;;;21.78;54.26;99436.69;6317820;20;2750370;-65
2022/09/12 11:55:18;;;;;;;;;5.00;3.80;;;;;21.81;54.34;99436.31;6340663;20;2752360;-65
2022/09/12 11:57:58;;;;;;;;;2.60;2.60;;;;;21.26;54.87;99426.91;6308829;20;2746095;-66
2022/09/12 12:00:40;;;;;;;;;4.60;4.00;;;;;21.62;54.77;99427.47;6308745;20;2747211;-65
2022/09/12 12:03:31;;;;;;;;;2.00;2.00;;;;;21.47;54.43;99434.63;6286539;20;2744002;-65
2022/09/12 12:06:18;;;;;;;;;4.00;3.40;;;;;21.61;54.60;99427.63;6337545;20;2751312;-65
2022/09/12 12:08:49;;;;;;;;;4.20;3.60;;;;;21.55;53.63;99445.56;6308828;20;2744031;-65
2022/09/12 12:11:41;;;;;;;;;4.00;4.00;;;;;21.16;54.32;99437.13;6311545;20;2749209;-65
2022/09/12 12:14:34;;;;;;;;;3.60;3.60;;;;;21.23;55.29;99438.19;6342169;20;2745104;-65